sensor_id;sensor_type;location;lat;lon;timestamp;P1;durP1;ratioP1;P2;durP2;ratioP2
85603;SDS011;76031;53.256;5.762;2024-03-02T00:02:00;3.20;;;2.05;;
85603;SDS011;76031;53.256;5.762;2024-03-02T00:04:25;2.53;;;1.30;;
85603;SDS011;76031;53.256;5.762;2024-03-02T00:06:54;3.90;;;1.95;;
85603;SDS011;76031;53.256;5.762;2024-03-02T00:09:20;3.90;;;1.80;;
85603;SDS011;76031;53.256;5.762;2024-03-02T00:11:45;4.30;;;2.30;;
85603;SDS011;76031;53.256;5.762;2024-03-02T00:14:11;3.80;;;1.85;;
85603;SDS011;76031;53.256;5.762;2024-03-02T00:16:36;3.10;;;1.75;;
85603;SDS011;76031;53.256;5.762;2024-03-02T00:19:05;4.28;;;2.88;;
85603;SDS011;76031;53.256;5.762;2024-03-02T00:21:32;3.08;;;1.70;;
85603;SDS011;76031;53.256;5.762;2024-03-02T00:23:58;3.25;;;1.73;;
85603;SDS011;76031;53.256;5.762;2024-03-02T00:26:23;4.70;;;2.38;;
85603;SDS011;76031;53.256;5.762;2024-03-02T00:28:48;3.30;;;2.05;;
85603;SDS011;76031;53.256;5.762;2024-03-02T00:31:15;3.05;;;1.55;;
85603;SDS011;76031;53.256;5.762;2024-03-02T00:33:44;3.72;;;1.70;;
85603;SDS011;76031;53.256;5.762;2024-03-02T00:36:10;3.58;;;2.20;;
85603;SDS011;76031;53.256;5.762;2024-03-02T00:38:44;3.67;;;2.58;;
85603;SDS011;76031;53.256;5.762;2024-03-02T00:41:12;4.22;;;2.20;;
85603;SDS011;76031;53.256;5.762;2024-03-02T00:46:05;3.70;;;2.00;;
85603;SDS011;76031;53.256;5.762;2024-03-02T00:48:31;3.90;;;2.97;;
85603;SDS011;76031;53.256;5.762;2024-03-02T00:50:56;4.10;;;2.50;;
85603;SDS011;76031;53.256;5.762;2024-03-02T00:53:22;3.45;;;2.20;;
85603;SDS011;76031;53.256;5.762;2024-03-02T00:55:49;3.92;;;2.63;;
85603;SDS011;76031;53.256;5.762;2024-03-02T00:58:15;2.90;;;1.92;;
85603;SDS011;76031;53.256;5.762;2024-03-02T01:00:40;4.27;;;2.20;;
85603;SDS011;76031;53.256;5.762;2024-03-02T01:03:05;6.85;;;2.78;;
85603;SDS011;76031;53.256;5.762;2024-03-02T01:05:31;3.57;;;2.17;;
85603;SDS011;76031;53.256;5.762;2024-03-02T01:07:56;4.80;;;2.83;;
85603;SDS011;76031;53.256;5.762;2024-03-02T01:10:21;4.67;;;2.63;;
85603;SDS011;76031;53.256;5.762;2024-03-02T01:12:47;3.17;;;2.43;;
85603;SDS011;76031;53.256;5.762;2024-03-02T01:15:12;3.83;;;2.17;;
85603;SDS011;76031;53.256;5.762;2024-03-02T01:17:37;3.85;;;2.50;;
85603;SDS011;76031;53.256;5.762;2024-03-02T01:20:03;5.07;;;2.30;;
85603;SDS011;76031;53.256;5.762;2024-03-02T01:22:28;3.35;;;1.88;;
85603;SDS011;76031;53.256;5.762;2024-03-02T01:24:53;3.20;;;1.80;;
85603;SDS011;76031;53.256;5.762;2024-03-02T01:27:19;4.15;;;2.45;;
85603;SDS011;76031;53.256;5.762;2024-03-02T01:29:45;4.37;;;2.30;;
85603;SDS011;76031;53.256;5.762;2024-03-02T01:32:10;5.30;;;2.53;;
85603;SDS011;76031;53.256;5.762;2024-03-02T01:34:35;4.07;;;2.00;;
85603;SDS011;76031;53.256;5.762;2024-03-02T01:37:00;2.87;;;1.37;;
85603;SDS011;76031;53.256;5.762;2024-03-02T01:39:26;4.57;;;1.90;;
85603;SDS011;76031;53.256;5.762;2024-03-02T01:41:51;3.60;;;1.83;;
85603;SDS011;76031;53.256;5.762;2024-03-02T01:44:16;3.03;;;2.17;;
85603;SDS011;76031;53.256;5.762;2024-03-02T01:46:42;3.05;;;1.90;;
85603;SDS011;76031;53.256;5.762;2024-03-02T01:49:07;3.20;;;1.92;;
85603;SDS011;76031;53.256;5.762;2024-03-02T01:51:32;3.67;;;1.97;;
85603;SDS011;76031;53.256;5.762;2024-03-02T01:53:58;3.22;;;1.60;;
85603;SDS011;76031;53.256;5.762;2024-03-02T01:56:23;2.77;;;1.50;;
85603;SDS011;76031;53.256;5.762;2024-03-02T01:58:49;4.35;;;1.98;;
85603;SDS011;76031;53.256;5.762;2024-03-02T02:01:14;3.60;;;1.63;;
85603;SDS011;76031;53.256;5.762;2024-03-02T02:03:39;5.20;;;1.90;;
85603;SDS011;76031;53.256;5.762;2024-03-02T02:06:05;2.30;;;1.65;;
85603;SDS011;76031;53.256;5.762;2024-03-02T02:08:32;5.15;;;1.98;;
85603;SDS011;76031;53.256;5.762;2024-03-02T02:10:57;2.78;;;1.40;;
85603;SDS011;76031;53.256;5.762;2024-03-02T02:13:22;4.53;;;1.73;;
85603;SDS011;76031;53.256;5.762;2024-03-02T02:15:48;3.33;;;1.75;;
85603;SDS011;76031;53.256;5.762;2024-03-02T02:18:13;3.47;;;1.20;;
85603;SDS011;76031;53.256;5.762;2024-03-02T02:20:38;5.10;;;1.70;;
85603;SDS011;76031;53.256;5.762;2024-03-02T02:23:06;3.72;;;1.67;;
85603;SDS011;76031;53.256;5.762;2024-03-02T02:25:34;2.60;;;1.60;;
85603;SDS011;76031;53.256;5.762;2024-03-02T02:28:00;4.45;;;1.80;;
85603;SDS011;76031;53.256;5.762;2024-03-02T02:30:29;4.03;;;1.40;;
85603;SDS011;76031;53.256;5.762;2024-03-02T02:32:55;5.75;;;1.77;;
85603;SDS011;76031;53.256;5.762;2024-03-02T02:35:21;3.03;;;1.40;;
85603;SDS011;76031;53.256;5.762;2024-03-02T02:37:47;2.72;;;1.77;;
85603;SDS011;76031;53.256;5.762;2024-03-02T02:40:12;4.95;;;2.17;;
85603;SDS011;76031;53.256;5.762;2024-03-02T02:42:38;4.40;;;1.70;;
85603;SDS011;76031;53.256;5.762;2024-03-02T02:45:04;4.57;;;2.03;;
85603;SDS011;76031;53.256;5.762;2024-03-02T02:47:29;3.55;;;1.60;;
85603;SDS011;76031;53.256;5.762;2024-03-02T02:49:55;2.47;;;1.63;;
85603;SDS011;76031;53.256;5.762;2024-03-02T02:52:20;4.63;;;1.70;;
85603;SDS011;76031;53.256;5.762;2024-03-02T02:54:46;2.03;;;1.13;;
85603;SDS011;76031;53.256;5.762;2024-03-02T02:57:11;3.93;;;2.00;;
85603;SDS011;76031;53.256;5.762;2024-03-02T02:59:36;3.70;;;2.00;;
85603;SDS011;76031;53.256;5.762;2024-03-02T03:02:02;2.50;;;1.37;;
85603;SDS011;76031;53.256;5.762;2024-03-02T03:04:27;3.08;;;1.95;;
85603;SDS011;76031;53.256;5.762;2024-03-02T03:06:52;4.77;;;2.20;;
85603;SDS011;76031;53.256;5.762;2024-03-02T03:09:18;3.57;;;1.77;;
85603;SDS011;76031;53.256;5.762;2024-03-02T03:11:43;3.63;;;1.47;;
85603;SDS011;76031;53.256;5.762;2024-03-02T03:14:09;2.20;;;1.13;;
85603;SDS011;76031;53.256;5.762;2024-03-02T03:16:34;2.75;;;1.13;;
85603;SDS011;76031;53.256;5.762;2024-03-02T03:19:00;3.57;;;1.57;;
85603;SDS011;76031;53.256;5.762;2024-03-02T03:21:25;2.63;;;1.90;;
85603;SDS011;76031;53.256;5.762;2024-03-02T03:23:50;2.23;;;1.27;;
85603;SDS011;76031;53.256;5.762;2024-03-02T03:26:15;2.30;;;1.60;;
85603;SDS011;76031;53.256;5.762;2024-03-02T03:28:41;3.07;;;1.70;;
85603;SDS011;76031;53.256;5.762;2024-03-02T03:31:06;2.50;;;1.30;;
85603;SDS011;76031;53.256;5.762;2024-03-02T03:33:32;2.83;;;1.60;;
85603;SDS011;76031;53.256;5.762;2024-03-02T03:35:57;6.20;;;1.70;;
85603;SDS011;76031;53.256;5.762;2024-03-02T03:38:22;3.07;;;1.60;;
85603;SDS011;76031;53.256;5.762;2024-03-02T03:40:48;2.87;;;1.10;;
85603;SDS011;76031;53.256;5.762;2024-03-02T03:43:13;3.03;;;1.47;;
85603;SDS011;76031;53.256;5.762;2024-03-02T03:45:38;4.30;;;1.70;;
85603;SDS011;76031;53.256;5.762;2024-03-02T03:48:03;4.15;;;1.85;;
85603;SDS011;76031;53.256;5.762;2024-03-02T03:50:29;3.17;;;1.30;;
85603;SDS011;76031;53.256;5.762;2024-03-02T03:52:54;4.30;;;1.53;;
85603;SDS011;76031;53.256;5.762;2024-03-02T03:55:19;4.27;;;1.27;;
85603;SDS011;76031;53.256;5.762;2024-03-02T03:57:45;2.30;;;1.30;;
85603;SDS011;76031;53.256;5.762;2024-03-02T04:00:10;3.70;;;0.70;;
85603;SDS011;76031;53.256;5.762;2024-03-02T04:02:37;1.75;;;0.75;;
85603;SDS011;76031;53.256;5.762;2024-03-02T04:05:02;1.20;;;0.60;;
85603;SDS011;76031;53.256;5.762;2024-03-02T04:07:30;2.70;;;0.80;;
85603;SDS011;76031;53.256;5.762;2024-03-02T04:09:55;3.33;;;0.80;;
85603;SDS011;76031;53.256;5.762;2024-03-02T04:12:21;1.80;;;0.82;;
85603;SDS011;76031;53.256;5.762;2024-03-02T04:14:46;1.33;;;0.70;;
85603;SDS011;76031;53.256;5.762;2024-03-02T04:17:11;1.37;;;0.40;;
85603;SDS011;76031;53.256;5.762;2024-03-02T04:19:37;2.17;;;0.63;;
85603;SDS011;76031;53.256;5.762;2024-03-02T04:22:02;1.83;;;0.65;;
85603;SDS011;76031;53.256;5.762;2024-03-02T04:24:28;1.50;;;0.68;;
85603;SDS011;76031;53.256;5.762;2024-03-02T04:26:53;0.83;;;0.63;;
85603;SDS011;76031;53.256;5.762;2024-03-02T04:29:18;1.40;;;1.17;;
85603;SDS011;76031;53.256;5.762;2024-03-02T04:31:43;2.00;;;0.60;;
85603;SDS011;76031;53.256;5.762;2024-03-02T04:34:09;1.70;;;0.40;;
85603;SDS011;76031;53.256;5.762;2024-03-02T04:36:34;0.50;;;0.20;;
85603;SDS011;76031;53.256;5.762;2024-03-02T04:38:59;0.80;;;0.33;;
85603;SDS011;76031;53.256;5.762;2024-03-02T04:41:25;0.90;;;0.40;;
85603;SDS011;76031;53.256;5.762;2024-03-02T04:43:50;1.20;;;0.43;;
85603;SDS011;76031;53.256;5.762;2024-03-02T04:46:15;0.30;;;0.20;;
85603;SDS011;76031;53.256;5.762;2024-03-02T04:48:40;0.27;;;0.23;;
85603;SDS011;76031;53.256;5.762;2024-03-02T04:51:06;1.03;;;0.63;;
85603;SDS011;76031;53.256;5.762;2024-03-02T04:53:31;1.10;;;0.40;;
85603;SDS011;76031;53.256;5.762;2024-03-02T04:55:56;0.80;;;0.30;;
85603;SDS011;76031;53.256;5.762;2024-03-02T04:58:40;0.65;;;0.17;;
85603;SDS011;76031;53.256;5.762;2024-03-02T05:01:05;0.70;;;0.37;;
85603;SDS011;76031;53.256;5.762;2024-03-02T05:03:31;2.03;;;0.68;;
85603;SDS011;76031;53.256;5.762;2024-03-02T05:05:59;0.82;;;0.40;;
85603;SDS011;76031;53.256;5.762;2024-03-02T05:08:25;0.97;;;0.30;;
85603;SDS011;76031;53.256;5.762;2024-03-02T05:10:50;0.90;;;0.43;;
85603;SDS011;76031;53.256;5.762;2024-03-02T05:13:15;1.45;;;0.47;;
85603;SDS011;76031;53.256;5.762;2024-03-02T05:15:42;1.83;;;0.77;;
85603;SDS011;76031;53.256;5.762;2024-03-02T05:18:08;0.60;;;0.43;;
85603;SDS011;76031;53.256;5.762;2024-03-02T05:20:33;1.37;;;0.77;;
85603;SDS011;76031;53.256;5.762;2024-03-02T05:22:59;0.70;;;0.40;;
85603;SDS011;76031;53.256;5.762;2024-03-02T05:25:24;0.70;;;0.40;;
85603;SDS011;76031;53.256;5.762;2024-03-02T05:27:49;1.53;;;0.40;;
85603;SDS011;76031;53.256;5.762;2024-03-02T05:30:15;1.40;;;0.40;;
85603;SDS011;76031;53.256;5.762;2024-03-02T05:32:40;1.23;;;0.50;;
85603;SDS011;76031;53.256;5.762;2024-03-02T05:35:05;0.77;;;0.40;;
85603;SDS011;76031;53.256;5.762;2024-03-02T05:37:31;1.33;;;0.68;;
85603;SDS011;76031;53.256;5.762;2024-03-02T05:39:56;1.60;;;0.53;;
85603;SDS011;76031;53.256;5.762;2024-03-02T05:42:21;1.10;;;0.60;;
85603;SDS011;76031;53.256;5.762;2024-03-02T05:44:47;1.07;;;0.30;;
85603;SDS011;76031;53.256;5.762;2024-03-02T05:47:12;1.20;;;0.38;;
85603;SDS011;76031;53.256;5.762;2024-03-02T05:49:38;1.77;;;0.70;;
85603;SDS011;76031;53.256;5.762;2024-03-02T05:52:03;1.33;;;0.63;;
85603;SDS011;76031;53.256;5.762;2024-03-02T05:54:28;1.00;;;0.40;;
85603;SDS011;76031;53.256;5.762;2024-03-02T05:56:53;1.20;;;0.33;;
85603;SDS011;76031;53.256;5.762;2024-03-02T05:59:19;0.93;;;0.50;;
85603;SDS011;76031;53.256;5.762;2024-03-02T06:01:47;1.83;;;0.70;;
85603;SDS011;76031;53.256;5.762;2024-03-02T06:04:13;1.40;;;0.60;;
85603;SDS011;76031;53.256;5.762;2024-03-02T06:06:39;1.20;;;0.77;;
85603;SDS011;76031;53.256;5.762;2024-03-02T06:09:04;1.50;;;0.73;;
85603;SDS011;76031;53.256;5.762;2024-03-02T06:11:39;1.25;;;0.65;;
85603;SDS011;76031;53.256;5.762;2024-03-02T06:14:05;1.77;;;0.60;;
85603;SDS011;76031;53.256;5.762;2024-03-02T06:16:31;3.47;;;1.10;;
85603;SDS011;76031;53.256;5.762;2024-03-02T06:18:57;1.55;;;0.47;;
85603;SDS011;76031;53.256;5.762;2024-03-02T06:21:25;1.40;;;0.40;;
85603;SDS011;76031;53.256;5.762;2024-03-02T06:23:50;2.58;;;0.50;;
85603;SDS011;76031;53.256;5.762;2024-03-02T06:26:16;2.38;;;0.70;;
85603;SDS011;76031;53.256;5.762;2024-03-02T06:28:41;2.50;;;0.73;;
85603;SDS011;76031;53.256;5.762;2024-03-02T06:31:06;1.07;;;0.40;;
85603;SDS011;76031;53.256;5.762;2024-03-02T06:33:32;1.47;;;0.60;;
85603;SDS011;76031;53.256;5.762;2024-03-02T06:35:57;2.87;;;0.87;;
85603;SDS011;76031;53.256;5.762;2024-03-02T06:38:22;1.10;;;0.50;;
85603;SDS011;76031;53.256;5.762;2024-03-02T06:40:48;1.00;;;0.70;;
85603;SDS011;76031;53.256;5.762;2024-03-02T06:43:13;1.20;;;0.27;;
85603;SDS011;76031;53.256;5.762;2024-03-02T06:45:38;1.20;;;0.60;;
85603;SDS011;76031;53.256;5.762;2024-03-02T06:48:04;2.65;;;0.73;;
85603;SDS011;76031;53.256;5.762;2024-03-02T06:50:29;1.40;;;0.30;;
85603;SDS011;76031;53.256;5.762;2024-03-02T06:52:55;1.17;;;0.47;;
85603;SDS011;76031;53.256;5.762;2024-03-02T06:55:21;0.57;;;0.20;;
85603;SDS011;76031;53.256;5.762;2024-03-02T06:57:46;1.40;;;0.82;;
85603;SDS011;76031;53.256;5.762;2024-03-02T07:00:12;1.53;;;0.80;;
85603;SDS011;76031;53.256;5.762;2024-03-02T07:02:37;1.50;;;0.40;;
85603;SDS011;76031;53.256;5.762;2024-03-02T07:05:03;3.83;;;0.70;;
85603;SDS011;76031;53.256;5.762;2024-03-02T07:07:32;0.70;;;0.40;;
85603;SDS011;76031;53.256;5.762;2024-03-02T07:09:57;2.25;;;0.80;;
85603;SDS011;76031;53.256;5.762;2024-03-02T07:12:22;2.47;;;0.90;;
85603;SDS011;76031;53.256;5.762;2024-03-02T07:14:48;1.47;;;0.93;;
85603;SDS011;76031;53.256;5.762;2024-03-02T07:17:28;4.65;;;0.60;;
85603;SDS011;76031;53.256;5.762;2024-03-02T07:19:53;2.92;;;1.13;;
85603;SDS011;76031;53.256;5.762;2024-03-02T07:22:19;2.17;;;1.30;;
85603;SDS011;76031;53.256;5.762;2024-03-02T07:24:44;1.75;;;1.05;;
85603;SDS011;76031;53.256;5.762;2024-03-02T07:27:11;4.32;;;0.60;;
85603;SDS011;76031;53.256;5.762;2024-03-02T07:29:37;2.63;;;1.33;;
85603;SDS011;76031;53.256;5.762;2024-03-02T07:34:38;4.25;;;1.02;;
85603;SDS011;76031;53.256;5.762;2024-03-02T07:37:03;4.68;;;1.77;;
85603;SDS011;76031;53.256;5.762;2024-03-02T07:39:28;2.05;;;0.95;;
85603;SDS011;76031;53.256;5.762;2024-03-02T07:41:57;2.08;;;1.10;;
85603;SDS011;76031;53.256;5.762;2024-03-02T07:44:22;1.73;;;0.73;;
85603;SDS011;76031;53.256;5.762;2024-03-02T07:46:48;3.35;;;1.10;;
85603;SDS011;76031;53.256;5.762;2024-03-02T07:49:15;2.90;;;1.45;;
85603;SDS011;76031;53.256;5.762;2024-03-02T07:51:40;2.35;;;0.77;;
85603;SDS011;76031;53.256;5.762;2024-03-02T07:54:06;2.03;;;1.02;;
85603;SDS011;76031;53.256;5.762;2024-03-02T07:56:31;2.13;;;0.80;;
85603;SDS011;76031;53.256;5.762;2024-03-02T07:58:57;2.70;;;1.02;;
85603;SDS011;76031;53.256;5.762;2024-03-02T08:01:26;2.53;;;1.20;;
85603;SDS011;76031;53.256;5.762;2024-03-02T08:03:52;1.70;;;1.13;;
85603;SDS011;76031;53.256;5.762;2024-03-02T08:06:17;2.83;;;1.33;;
85603;SDS011;76031;53.256;5.762;2024-03-02T08:08:45;1.85;;;1.02;;
85603;SDS011;76031;53.256;5.762;2024-03-02T08:11:11;2.10;;;1.13;;
85603;SDS011;76031;53.256;5.762;2024-03-02T08:13:37;3.87;;;1.60;;
85603;SDS011;76031;53.256;5.762;2024-03-02T08:16:03;2.28;;;0.90;;
85603;SDS011;76031;53.256;5.762;2024-03-02T08:18:28;1.65;;;0.85;;
85603;SDS011;76031;53.256;5.762;2024-03-02T08:20:53;1.90;;;1.20;;
85603;SDS011;76031;53.256;5.762;2024-03-02T08:23:19;2.10;;;0.90;;
85603;SDS011;76031;53.256;5.762;2024-03-02T08:25:44;1.20;;;0.50;;
85603;SDS011;76031;53.256;5.762;2024-03-02T08:28:10;3.17;;;1.10;;
85603;SDS011;76031;53.256;5.762;2024-03-02T08:30:36;2.50;;;0.85;;
85603;SDS011;76031;53.256;5.762;2024-03-02T08:33:01;1.50;;;0.60;;
85603;SDS011;76031;53.256;5.762;2024-03-02T08:35:27;1.97;;;0.60;;
85603;SDS011;76031;53.256;5.762;2024-03-02T08:37:53;4.53;;;1.00;;
85603;SDS011;76031;53.256;5.762;2024-03-02T08:40:18;2.90;;;0.63;;
85603;SDS011;76031;53.256;5.762;2024-03-02T08:42:43;3.72;;;0.98;;
85603;SDS011;76031;53.256;5.762;2024-03-02T08:45:09;2.00;;;0.93;;
85603;SDS011;76031;53.256;5.762;2024-03-02T08:47:34;2.88;;;0.80;;
85603;SDS011;76031;53.256;5.762;2024-03-02T08:50:00;1.90;;;1.00;;
85603;SDS011;76031;53.256;5.762;2024-03-02T08:52:25;1.65;;;0.63;;
85603;SDS011;76031;53.256;5.762;2024-03-02T08:54:51;2.75;;;0.60;;
85603;SDS011;76031;53.256;5.762;2024-03-02T08:57:16;1.57;;;0.90;;
85603;SDS011;76031;53.256;5.762;2024-03-02T08:59:41;2.27;;;0.93;;
85603;SDS011;76031;53.256;5.762;2024-03-02T09:02:07;2.97;;;0.97;;
85603;SDS011;76031;53.256;5.762;2024-03-02T09:04:32;2.40;;;0.80;;
85603;SDS011;76031;53.256;5.762;2024-03-02T09:06:57;2.30;;;0.65;;
85603;SDS011;76031;53.256;5.762;2024-03-02T09:09:23;7.10;;;1.67;;
85603;SDS011;76031;53.256;5.762;2024-03-02T09:11:48;1.97;;;0.70;;
85603;SDS011;76031;53.256;5.762;2024-03-02T09:14:14;2.37;;;1.10;;
85603;SDS011;76031;53.256;5.762;2024-03-02T09:16:43;2.17;;;0.70;;
85603;SDS011;76031;53.256;5.762;2024-03-02T09:19:08;1.97;;;0.60;;
85603;SDS011;76031;53.256;5.762;2024-03-02T09:24:00;3.92;;;0.77;;
85603;SDS011;76031;53.256;5.762;2024-03-02T09:26:26;3.55;;;0.60;;
85603;SDS011;76031;53.256;5.762;2024-03-02T09:28:52;1.45;;;1.00;;
85603;SDS011;76031;53.256;5.762;2024-03-02T09:31:17;2.50;;;0.82;;
85603;SDS011;76031;53.256;5.762;2024-03-02T09:33:43;1.40;;;0.88;;
85603;SDS011;76031;53.256;5.762;2024-03-02T09:36:21;1.70;;;0.90;;
85603;SDS011;76031;53.256;5.762;2024-03-02T09:38:47;1.83;;;0.80;;
85603;SDS011;76031;53.256;5.762;2024-03-02T09:41:13;1.30;;;0.50;;
85603;SDS011;76031;53.256;5.762;2024-03-02T09:43:39;2.65;;;0.75;;
85603;SDS011;76031;53.256;5.762;2024-03-02T09:46:05;1.98;;;0.77;;
85603;SDS011;76031;53.256;5.762;2024-03-02T09:48:31;2.83;;;0.88;;
85603;SDS011;76031;53.256;5.762;2024-03-02T09:50:56;2.77;;;0.63;;
85603;SDS011;76031;53.256;5.762;2024-03-02T09:53:22;1.38;;;0.90;;
85603;SDS011;76031;53.256;5.762;2024-03-02T09:55:48;2.05;;;0.60;;
85603;SDS011;76031;53.256;5.762;2024-03-02T09:58:13;2.47;;;0.70;;
85603;SDS011;76031;53.256;5.762;2024-03-02T10:00:38;2.23;;;0.83;;
85603;SDS011;76031;53.256;5.762;2024-03-02T10:03:04;2.03;;;0.82;;
85603;SDS011;76031;53.256;5.762;2024-03-02T10:05:30;2.83;;;0.80;;
85603;SDS011;76031;53.256;5.762;2024-03-02T10:08:00;2.03;;;0.40;;
85603;SDS011;76031;53.256;5.762;2024-03-02T10:10:34;2.47;;;1.30;;
85603;SDS011;76031;53.256;5.762;2024-03-02T10:13:03;2.40;;;0.60;;
85603;SDS011;76031;53.256;5.762;2024-03-02T10:15:28;2.40;;;0.70;;
85603;SDS011;76031;53.256;5.762;2024-03-02T10:17:54;2.45;;;0.50;;
85603;SDS011;76031;53.256;5.762;2024-03-02T10:20:23;5.28;;;1.10;;
85603;SDS011;76031;53.256;5.762;2024-03-02T10:22:51;1.25;;;0.40;;
85603;SDS011;76031;53.256;5.762;2024-03-02T10:25:32;1.45;;;0.70;;
85603;SDS011;76031;53.256;5.762;2024-03-02T10:27:58;2.38;;;0.47;;
85603;SDS011;76031;53.256;5.762;2024-03-02T10:30:24;2.08;;;0.47;;
85603;SDS011;76031;53.256;5.762;2024-03-02T10:32:50;1.27;;;0.90;;
85603;SDS011;76031;53.256;5.762;2024-03-02T10:35:16;1.77;;;0.40;;
85603;SDS011;76031;53.256;5.762;2024-03-02T10:40:07;1.15;;;0.65;;
85603;SDS011;76031;53.256;5.762;2024-03-02T10:42:35;1.88;;;0.70;;
85603;SDS011;76031;53.256;5.762;2024-03-02T10:45:01;1.90;;;0.50;;
85603;SDS011;76031;53.256;5.762;2024-03-02T10:47:26;1.10;;;0.67;;
85603;SDS011;76031;53.256;5.762;2024-03-02T10:49:54;2.55;;;0.50;;
85603;SDS011;76031;53.256;5.762;2024-03-02T10:52:21;2.08;;;0.65;;
85603;SDS011;76031;53.256;5.762;2024-03-02T10:54:48;1.50;;;0.65;;
85603;SDS011;76031;53.256;5.762;2024-03-02T10:57:13;2.60;;;1.20;;
85603;SDS011;76031;53.256;5.762;2024-03-02T10:59:47;3.10;;;0.90;;
85603;SDS011;76031;53.256;5.762;2024-03-02T11:02:15;1.85;;;0.60;;
85603;SDS011;76031;53.256;5.762;2024-03-02T11:04:41;1.48;;;0.60;;
85603;SDS011;76031;53.256;5.762;2024-03-02T11:07:07;2.30;;;0.60;;
85603;SDS011;76031;53.256;5.762;2024-03-02T11:09:34;1.42;;;0.77;;
85603;SDS011;76031;53.256;5.762;2024-03-02T11:12:06;1.77;;;0.77;;
85603;SDS011;76031;53.256;5.762;2024-03-02T11:14:34;3.70;;;0.70;;
85603;SDS011;76031;53.256;5.762;2024-03-02T11:17:02;3.20;;;0.70;;
85603;SDS011;76031;53.256;5.762;2024-03-02T11:21:54;2.80;;;0.40;;
85603;SDS011;76031;53.256;5.762;2024-03-02T11:27:01;1.50;;;0.57;;
85603;SDS011;76031;53.256;5.762;2024-03-02T11:31:58;1.83;;;0.40;;
85603;SDS011;76031;53.256;5.762;2024-03-02T11:34:45;3.15;;;0.40;;
85603;SDS011;76031;53.256;5.762;2024-03-02T11:37:18;1.70;;;0.50;;
85603;SDS011;76031;53.256;5.762;2024-03-02T11:39:44;2.72;;;0.70;;
85603;SDS011;76031;53.256;5.762;2024-03-02T11:44:35;3.03;;;0.83;;
85603;SDS011;76031;53.256;5.762;2024-03-02T11:47:01;2.97;;;0.43;;
85603;SDS011;76031;53.256;5.762;2024-03-02T11:52:14;2.65;;;0.70;;
85603;SDS011;76031;53.256;5.762;2024-03-02T11:54:47;1.73;;;0.85;;
85603;SDS011;76031;53.256;5.762;2024-03-02T11:57:13;3.08;;;0.65;;
85603;SDS011;76031;53.256;5.762;2024-03-02T11:59:40;3.08;;;0.70;;
85603;SDS011;76031;53.256;5.762;2024-03-02T12:02:05;1.33;;;0.80;;
85603;SDS011;76031;53.256;5.762;2024-03-02T12:04:31;2.35;;;0.52;;
85603;SDS011;76031;53.256;5.762;2024-03-02T12:06:57;3.20;;;0.53;;
85603;SDS011;76031;53.256;5.762;2024-03-02T12:09:25;2.97;;;0.77;;
85603;SDS011;76031;53.256;5.762;2024-03-02T12:12:01;9.77;;;1.27;;
85603;SDS011;76031;53.256;5.762;2024-03-02T12:14:26;2.47;;;0.93;;
85603;SDS011;76031;53.256;5.762;2024-03-02T12:16:54;2.20;;;0.60;;
85603;SDS011;76031;53.256;5.762;2024-03-02T12:19:20;3.35;;;0.98;;
85603;SDS011;76031;53.256;5.762;2024-03-02T12:21:46;4.23;;;0.90;;
85603;SDS011;76031;53.256;5.762;2024-03-02T12:24:11;2.10;;;0.60;;
85603;SDS011;76031;53.256;5.762;2024-03-02T12:26:36;1.67;;;0.70;;
85603;SDS011;76031;53.256;5.762;2024-03-02T12:29:02;5.13;;;1.13;;
85603;SDS011;76031;53.256;5.762;2024-03-02T12:31:27;1.08;;;0.30;;
85603;SDS011;76031;53.256;5.762;2024-03-02T12:33:52;5.53;;;1.27;;
85603;SDS011;76031;53.256;5.762;2024-03-02T12:36:18;3.42;;;0.73;;
85603;SDS011;76031;53.256;5.762;2024-03-02T12:38:44;2.22;;;0.63;;
85603;SDS011;76031;53.256;5.762;2024-03-02T12:41:09;3.30;;;0.73;;
85603;SDS011;76031;53.256;5.762;2024-03-02T12:43:34;2.53;;;0.80;;
85603;SDS011;76031;53.256;5.762;2024-03-02T12:46:00;3.10;;;0.80;;
85603;SDS011;76031;53.256;5.762;2024-03-02T12:48:25;2.50;;;0.90;;
85603;SDS011;76031;53.256;5.762;2024-03-02T12:50:51;2.88;;;0.73;;
85603;SDS011;76031;53.256;5.762;2024-03-02T12:53:16;4.70;;;1.00;;
85603;SDS011;76031;53.256;5.762;2024-03-02T12:55:41;3.17;;;0.85;;
85603;SDS011;76031;53.256;5.762;2024-03-02T12:58:07;1.58;;;0.93;;
85603;SDS011;76031;53.256;5.762;2024-03-02T13:00:32;2.93;;;0.90;;
85603;SDS011;76031;53.256;5.762;2024-03-02T13:03:00;2.92;;;1.05;;
85603;SDS011;76031;53.256;5.762;2024-03-02T13:05:31;2.38;;;0.80;;
85603;SDS011;76031;53.256;5.762;2024-03-02T13:07:57;2.08;;;0.73;;
85603;SDS011;76031;53.256;5.762;2024-03-02T13:10:23;2.13;;;1.27;;
85603;SDS011;76031;53.256;5.762;2024-03-02T13:12:48;2.80;;;1.07;;
85603;SDS011;76031;53.256;5.762;2024-03-02T13:15:13;2.93;;;1.03;;
85603;SDS011;76031;53.256;5.762;2024-03-02T13:17:40;3.80;;;1.27;;
85603;SDS011;76031;53.256;5.762;2024-03-02T13:20:05;3.13;;;1.57;;
85603;SDS011;76031;53.256;5.762;2024-03-02T13:22:35;2.70;;;2.05;;
85603;SDS011;76031;53.256;5.762;2024-03-02T13:25:01;2.38;;;1.00;;
85603;SDS011;76031;53.256;5.762;2024-03-02T13:27:28;2.70;;;1.33;;
85603;SDS011;76031;53.256;5.762;2024-03-02T13:29:54;2.90;;;1.00;;
85603;SDS011;76031;53.256;5.762;2024-03-02T13:32:19;3.70;;;1.07;;
85603;SDS011;76031;53.256;5.762;2024-03-02T13:34:48;7.97;;;1.33;;
85603;SDS011;76031;53.256;5.762;2024-03-02T13:37:14;2.45;;;0.88;;
85603;SDS011;76031;53.256;5.762;2024-03-02T13:39:39;2.60;;;0.80;;
85603;SDS011;76031;53.256;5.762;2024-03-02T13:42:09;3.63;;;1.20;;
85603;SDS011;76031;53.256;5.762;2024-03-02T13:44:35;3.10;;;0.55;;
85603;SDS011;76031;53.256;5.762;2024-03-02T13:47:00;2.13;;;0.75;;
85603;SDS011;76031;53.256;5.762;2024-03-02T13:49:26;1.45;;;0.68;;
85603;SDS011;76031;53.256;5.762;2024-03-02T13:52:05;4.18;;;0.90;;
85603;SDS011;76031;53.256;5.762;2024-03-02T13:54:42;3.83;;;0.88;;
85603;SDS011;76031;53.256;5.762;2024-03-02T13:57:08;1.17;;;0.40;;
85603;SDS011;76031;53.256;5.762;2024-03-02T13:59:33;3.33;;;0.60;;
85603;SDS011;76031;53.256;5.762;2024-03-02T14:02:00;2.33;;;0.55;;
85603;SDS011;76031;53.256;5.762;2024-03-02T14:06:50;2.47;;;0.70;;
85603;SDS011;76031;53.256;5.762;2024-03-02T14:09:16;1.63;;;1.08;;
85603;SDS011;76031;53.256;5.762;2024-03-02T14:11:41;2.37;;;0.60;;
85603;SDS011;76031;53.256;5.762;2024-03-02T14:16:31;3.43;;;0.80;;
85603;SDS011;76031;53.256;5.762;2024-03-02T14:18:57;2.73;;;0.80;;
85603;SDS011;76031;53.256;5.762;2024-03-02T14:21:24;2.15;;;0.70;;
85603;SDS011;76031;53.256;5.762;2024-03-02T14:23:49;2.87;;;0.77;;
85603;SDS011;76031;53.256;5.762;2024-03-02T14:26:15;3.00;;;0.70;;
85603;SDS011;76031;53.256;5.762;2024-03-02T14:28:40;3.67;;;0.50;;
85603;SDS011;76031;53.256;5.762;2024-03-02T14:31:05;2.00;;;0.93;;
85603;SDS011;76031;53.256;5.762;2024-03-02T14:35:56;2.53;;;0.82;;
85603;SDS011;76031;53.256;5.762;2024-03-02T14:38:21;1.97;;;0.77;;
85603;SDS011;76031;53.256;5.762;2024-03-02T14:40:47;2.50;;;0.90;;
85603;SDS011;76031;53.256;5.762;2024-03-02T14:43:12;4.17;;;0.87;;
85603;SDS011;76031;53.256;5.762;2024-03-02T14:45:38;2.13;;;0.80;;
85603;SDS011;76031;53.256;5.762;2024-03-02T14:48:03;3.43;;;0.90;;
85603;SDS011;76031;53.256;5.762;2024-03-02T14:52:54;3.10;;;0.87;;
85603;SDS011;76031;53.256;5.762;2024-03-02T14:55:22;3.40;;;0.88;;
85603;SDS011;76031;53.256;5.762;2024-03-02T14:57:47;1.73;;;0.80;;
85603;SDS011;76031;53.256;5.762;2024-03-02T15:00:13;2.47;;;0.70;;
85603;SDS011;76031;53.256;5.762;2024-03-02T15:02:38;2.72;;;0.80;;
85603;SDS011;76031;53.256;5.762;2024-03-02T15:05:03;2.00;;;0.97;;
85603;SDS011;76031;53.256;5.762;2024-03-02T15:07:30;5.00;;;0.57;;
85603;SDS011;76031;53.256;5.762;2024-03-02T15:09:56;3.78;;;0.80;;
85603;SDS011;76031;53.256;5.762;2024-03-02T15:12:21;2.90;;;1.20;;
85603;SDS011;76031;53.256;5.762;2024-03-02T15:14:46;2.17;;;1.08;;